createdAt,value
2022-09-20T00:01:32.673Z,102055.31
2022-09-20T00:04:02.541Z,102054.78
2022-09-20T00:06:31.189Z,102052.44
2022-09-20T00:09:04.260Z,102046.63
2022-09-20T00:11:33.395Z,102052.41
2022-09-20T00:14:02.625Z,102056.53
2022-09-20T00:16:32.501Z,102050.72
2022-09-20T00:19:08.068Z,102057.16
2022-09-20T00:21:36.630Z,102056.47
2022-09-20T00:24:03.677Z,102056.63
2022-09-20T00:26:30.527Z,102053.28
2022-09-20T00:29:00.755Z,102059.75
2022-09-20T00:31:27.966Z,102064.72
2022-09-20T00:34:17.610Z,102059.88
2022-09-20T00:36:45.350Z,102067.66
2022-09-20T00:39:14.947Z,102070.31
2022-09-20T00:41:41.909Z,102065.84
2022-09-20T00:44:50.129Z,102058.56
2022-09-20T00:47:26.837Z,102066.81
2022-09-20T00:49:59.580Z,102062.66
2022-09-20T00:52:27.805Z,102063.50
2022-09-20T00:54:55.126Z,102067.97
2022-09-20T00:57:22.307Z,102067.28
2022-09-20T00:59:50.956Z,102070.13
2022-09-20T01:02:27.045Z,102073.75
2022-09-20T01:04:55.425Z,102066.41
2022-09-20T01:07:23.138Z,102072.84
2022-09-20T01:09:50.809Z,102070.34
2022-09-20T01:12:29.750Z,102075.81
2022-09-20T01:14:59.199Z,102077.75
2022-09-20T01:17:28.274Z,102069.25
2022-09-20T01:19:58.097Z,102069.59
2022-09-20T01:22:37.162Z,102076.16
2022-09-20T01:25:34.818Z,102072.00
2022-09-20T01:28:01.728Z,102071.63
2022-09-20T01:30:47.452Z,102072.75
2022-09-20T01:33:28.764Z,102066.66
2022-09-20T01:35:59.026Z,102068.16
2022-09-20T01:38:51.950Z,102067.16
2022-09-20T01:41:44.683Z,102071.78
2022-09-20T01:44:32.575Z,102077.25
2022-09-20T01:47:35.911Z,102073.91
2022-09-20T01:50:35.550Z,102076.72
2022-09-20T01:53:39.911Z,102075.03
2022-09-20T01:56:35.169Z,102074.50
2022-09-20T01:59:39.316Z,102078.00
2022-09-20T02:02:32.487Z,102076.03
2022-09-20T02:05:13.337Z,102072.38
2022-09-20T02:07:59.149Z,102065.81
2022-09-20T02:10:47.117Z,102064.66
2022-09-20T02:13:29.586Z,102063.81
2022-09-20T02:15:59.201Z,102072.09
2022-09-20T02:18:44.088Z,102067.06
2022-09-20T02:21:37.147Z,102070.03
2022-09-20T02:24:13.075Z,102065.91
2022-09-20T02:27:17.448Z,102066.69
2022-09-20T02:30:05.699Z,102063.38
2022-09-20T02:32:42.169Z,102068.31
2022-09-20T02:35:33.622Z,102067.63
2022-09-20T02:38:38.019Z,102070.59
2022-09-20T02:41:32.433Z,102065.44
2022-09-20T02:44:11.202Z,102074.34
2022-09-20T02:46:59.880Z,102069.88
2022-09-20T02:49:53.996Z,102069.22
2022-09-20T02:52:43.490Z,102078.28
2022-09-20T02:55:35.101Z,102082.75
2022-09-20T02:58:26.465Z,102073.84
2022-09-20T03:01:18.175Z,102069.69
2022-09-20T03:04:09.091Z,102079.13
2022-09-20T03:06:47.633Z,102071.31
2022-09-20T03:09:45.869Z,102071.19
2022-09-20T03:12:18.579Z,102073.84
2022-09-20T03:15:05.417Z,102075.78
2022-09-20T03:17:51.460Z,102073.31
2022-09-20T03:20:41.465Z,102065.34
2022-09-20T03:23:31.238Z,102063.81
2022-09-20T03:26:21.483Z,102062.47
2022-09-20T03:29:01.335Z,102062.47
2022-09-20T03:31:46.951Z,102064.41
2022-09-20T03:34:18.990Z,102061.25
2022-09-20T03:37:10.532Z,102065.03
2022-09-20T03:40:12.040Z,102056.41
2022-09-20T03:42:49.956Z,102064.81
2022-09-20T03:45:39.463Z,102064.81
2022-09-20T03:48:24.403Z,102069.25
2022-09-20T03:51:16.337Z,102075.72
2022-09-20T03:53:58.279Z,102068.19
2022-09-20T03:57:14.231Z,102062.34
2022-09-20T03:59:44.306Z,102066.28
2022-09-20T04:02:17.055Z,102061.81
2022-09-20T04:05:01.187Z,102067.97
2022-09-20T04:07:52.958Z,102068.81
2022-09-20T04:10:41.840Z,102066.28
2022-09-20T04:13:23.854Z,102068.41
2022-09-20T04:16:02.448Z,102066.75
2022-09-20T04:18:44.370Z,102069.38
2022-09-20T04:21:25.104Z,102069.66
2022-09-20T04:24:09.928Z,102071.66
2022-09-20T04:26:43.569Z,102073.59
2022-09-20T04:29:28.744Z,102073.19
2022-09-20T04:32:17.128Z,102064.72
2022-09-20T04:35:14.603Z,102076.44
2022-09-20T04:37:44.187Z,102072.25
2022-09-20T04:40:32.117Z,102069.19
2022-09-20T04:43:33.178Z,102069.66
2022-09-20T04:46:55.811Z,102067.28
2022-09-20T04:49:59.609Z,102063.25
2022-09-20T04:52:44.664Z,102060.91
2022-09-20T04:55:27.087Z,102062.00
2022-09-20T04:58:33.235Z,102065.81
2022-09-20T05:01:32.382Z,102071.53
2022-09-20T05:04:14.854Z,102066.50
2022-09-20T05:07:09.434Z,102070.00
2022-09-20T05:10:00.340Z,102070.00
2022-09-20T05:12:57.061Z,102067.88
2022-09-20T05:15:51.041Z,102061.34
2022-09-20T05:18:36.209Z,102066.34
2022-09-20T05:21:40.757Z,102070.53
2022-09-20T05:24:28.682Z,102069.81
2022-09-20T05:27:11.174Z,102066.72
2022-09-20T05:29:55.862Z,102062.81
2022-09-20T05:32:25.627Z,102056.53
2022-09-20T05:35:31.033Z,102064.47
2022-09-20T05:38:26.004Z,102076.22
2022-09-20T05:41:21.317Z,102077.75
2022-09-20T05:44:16.127Z,102077.22
2022-09-20T05:46:55.072Z,102079.31
2022-09-20T05:49:40.228Z,102090.19
2022-09-20T05:52:33.584Z,102091.16
2022-09-20T05:55:18.675Z,102088.81
2022-09-20T05:58:00.068Z,102084.63
2022-09-20T06:00:33.191Z,102092.31
2022-09-20T06:03:18.098Z,102095.63
2022-09-20T06:06:08.549Z,102090.50
2022-09-20T06:08:39.133Z,102096.47
2022-09-20T06:11:17.894Z,102088.53
2022-09-20T06:14:04.212Z,102091.16
2022-09-20T06:16:57.442Z,102087.00
2022-09-20T06:19:46.171Z,102095.09
2022-09-20T06:22:20.097Z,102095.09
2022-09-20T06:24:56.553Z,102103.16
2022-09-20T06:27:31.434Z,102099.53
2022-09-20T06:30:03.915Z,102101.09
2022-09-20T06:32:32.073Z,102107.19
2022-09-20T06:35:00.773Z,102099.50
2022-09-20T06:38:09.555Z,102109.53
2022-09-20T06:41:03.535Z,102112.72
2022-09-20T06:43:31.616Z,102122.03
2022-09-20T06:45:59.095Z,102126.09
2022-09-20T06:48:26.091Z,102115.19
2022-09-20T06:50:53.347Z,102126.91
2022-09-20T06:53:33.526Z,102122.00
2022-09-20T06:56:01.833Z,102129.38
2022-09-20T06:58:28.671Z,102121.84
2022-09-20T07:00:55.936Z,102122.38
2022-09-20T07:03:22.797Z,102122.91
2022-09-20T07:05:54.644Z,102128.91
2022-09-20T07:08:21.440Z,102137.06
2022-09-20T07:10:48.402Z,102131.34
2022-09-20T07:13:15.293Z,102138.03
2022-09-20T07:15:44.065Z,102130.28
2022-09-20T07:18:10.938Z,102137.13
2022-09-20T07:20:38.105Z,102130.41
2022-09-20T07:23:05.190Z,102127.81
2022-09-20T07:25:32.441Z,102127.22
2022-09-20T07:27:59.298Z,102141.56
2022-09-20T07:30:26.352Z,102132.31
2022-09-20T07:32:53.823Z,102135.38
2022-09-20T07:35:20.625Z,102131.41
2022-09-20T07:37:48.259Z,102139.59
2022-09-20T07:40:16.019Z,102141.66
2022-09-20T07:42:45.650Z,102130.59
2022-09-20T07:45:13.017Z,102136.28
2022-09-20T07:47:42.187Z,102142.25
2022-09-20T07:50:12.076Z,102146.59
2022-09-20T07:52:39.130Z,102144.97
2022-09-20T07:55:06.232Z,102152.03
2022-09-20T07:57:37.499Z,102147.44
2022-09-20T08:00:07.255Z,102155.97
2022-09-20T08:02:34.356Z,102152.97
2022-09-20T08:05:01.464Z,102160.47
2022-09-20T08:07:29.577Z,102155.16
2022-09-20T08:09:56.471Z,102169.28
2022-09-20T08:15:12.140Z,102167.97
2022-09-20T08:17:40.662Z,102168.81
2022-09-20T08:20:08.052Z,102169.50
2022-09-20T08:22:35.568Z,102168.34
2022-09-20T08:25:03.669Z,102176.84
2022-09-20T08:27:39.692Z,102177.38
2022-09-20T08:30:09.529Z,102178.19
2022-09-20T08:32:42.229Z,102177.88
2022-09-20T08:35:09.705Z,102181.22
2022-09-20T08:37:41.542Z,102171.44
2022-09-20T08:42:44.345Z,102187.91
2022-09-20T08:47:58.377Z,102189.47
2022-09-20T08:50:26.941Z,102191.66
2022-09-20T08:55:36.407Z,102193.25
2022-09-20T08:58:08.793Z,102186.47
2022-09-20T09:00:37.484Z,102189.31
2022-09-20T09:05:47.623Z,102184.72
2022-09-20T09:08:19.624Z,102189.88
2022-09-20T09:13:27.883Z,102186.88
2022-09-20T09:15:59.568Z,102183.09
2022-09-20T09:18:35.825Z,102187.09
2022-09-20T09:21:05.391Z,102186.94
2022-09-20T09:23:41.820Z,102181.44
2022-09-20T09:26:20.410Z,102190.09
2022-09-20T09:28:48.892Z,102189.09
2022-09-20T09:31:26.245Z,102192.25
2022-09-20T09:33:53.436Z,102199.91
2022-09-20T09:36:26.340Z,102194.44
2022-09-20T09:39:32.325Z,102199.25
2022-09-20T09:42:03.287Z,102204.09
2022-09-20T09:44:39.347Z,102208.44
2022-09-20T09:47:28.356Z,102206.13
2022-09-20T09:50:06.158Z,102203.94
2022-09-20T09:52:37.747Z,102214.28
2022-09-20T09:55:06.557Z,102212.28
2022-09-20T09:58:26.811Z,102212.97
2022-09-20T10:00:57.549Z,102205.47
2022-09-20T10:03:47.369Z,102214.31
2022-09-20T10:06:52.453Z,102203.00
2022-09-20T10:09:31.478Z,102196.19
2022-09-20T10:12:10.184Z,102202.34
2022-09-20T10:15:06.067Z,102205.16
2022-09-20T10:17:47.934Z,102211.31
2022-09-20T10:20:43.694Z,102200.53
2022-09-20T10:23:51.881Z,102198.38
2022-09-20T10:26:39.212Z,102195.72
2022-09-20T10:29:33.072Z,102198.06
2022-09-20T10:32:50.063Z,102197.88
2022-09-20T10:35:38.113Z,102189.41
2022-09-20T10:38:38.853Z,102197.06
2022-09-20T10:41:48.960Z,102198.91
2022-09-20T10:44:19.130Z,102190.75
2022-09-20T10:47:07.779Z,102199.38
2022-09-20T10:50:17.619Z,102188.41
2022-09-20T10:53:14.957Z,102192.06
2022-09-20T10:55:57.971Z,102184.59
2022-09-20T10:58:34.224Z,102189.56
2022-09-20T11:01:23.679Z,102189.22
2022-09-20T11:03:56.889Z,102191.56
2022-09-20T11:06:29.634Z,102186.88
2022-09-20T11:08:58.749Z,102180.91
2022-09-20T11:11:46.646Z,102187.59
2022-09-20T11:14:21.623Z,102171.75
2022-09-20T11:16:54.278Z,102178.56
2022-09-20T11:19:29.504Z,102182.59
2022-09-20T11:22:32.933Z,102181.41
2022-09-20T11:25:06.488Z,102178.06
2022-09-20T11:27:40.137Z,102173.72
2022-09-20T11:30:15.301Z,102174.56
2022-09-20T11:32:45.833Z,102175.56
2022-09-20T11:35:14.922Z,102180.38
2022-09-20T11:37:57.082Z,102184.38
2022-09-20T11:40:31.720Z,102175.84
2022-09-20T11:43:02.831Z,102184.69
2022-09-20T11:45:30.901Z,102177.38
2022-09-20T11:48:11.608Z,102179.69
2022-09-20T11:50:49.542Z,102179.31
2022-09-20T11:53:19.433Z,102177.16
2022-09-20T11:55:57.570Z,102169.50
2022-09-20T11:58:24.646Z,102175.50
2022-09-20T12:00:56.063Z,102183.16
2022-09-20T12:03:33.018Z,102168.00
2022-09-20T12:06:06.998Z,102180.31
2022-09-20T12:08:37.864Z,102173.81
2022-09-20T12:11:11.640Z,102177.31
2022-09-20T12:13:41.294Z,102173.81
2022-09-20T12:16:15.588Z,102168.66
2022-09-20T12:18:54.571Z,102165.16
2022-09-20T12:21:22.176Z,102166.81
2022-09-20T12:23:58.441Z,102169.97
2022-09-20T12:26:28.239Z,102165.81
2022-09-20T12:29:10.479Z,102173.13
2022-09-20T12:31:38.536Z,102174.59
2022-09-20T12:34:05.603Z,102165.56
2022-09-20T12:37:05.392Z,102154.25
2022-09-20T12:39:34.751Z,102163.41
2022-09-20T12:42:10.793Z,102157.41
2022-09-20T12:45:15.591Z,102159.84
2022-09-20T12:47:52.740Z,102166.69
2022-09-20T12:50:41.589Z,102161.81
2022-09-20T12:53:16.903Z,102163.13
2022-09-20T12:56:05.079Z,102160.13
2022-09-20T12:58:48.694Z,102161.59
2022-09-20T13:01:15.490Z,102155.09
2022-09-20T13:03:48.548Z,102160.75
2022-09-20T13:06:16.845Z,102163.34
2022-09-20T13:09:02.164Z,102157.00
2022-09-20T13:11:41.945Z,102152.19
2022-09-20T13:14:16.824Z,102164.72
2022-09-20T13:17:04.653Z,102158.69
2022-09-20T13:19:38.301Z,102156.41
2022-09-20T13:22:17.658Z,102157.41
2022-09-20T13:24:49.287Z,102154.44
2022-09-20T13:27:21.256Z,102151.22
2022-09-20T13:29:48.210Z,102152.44
2022-09-20T13:32:15.969Z,102149.25
2022-09-20T13:34:46.031Z,102149.47
2022-09-20T13:37:23.810Z,102153.13
2022-09-20T13:39:55.447Z,102148.78
2022-09-20T13:42:22.775Z,102145.75
2022-09-20T13:44:49.821Z,102144.94
2022-09-20T13:47:30.962Z,102153.75
2022-09-20T13:50:23.846Z,102149.09
2022-09-20T13:52:55.605Z,102151.94
2022-09-20T13:55:29.931Z,102142.91
2022-09-20T13:58:00.743Z,102148.94
2022-09-20T14:00:28.063Z,102148.94
2022-09-20T14:02:55.639Z,102147.09
2022-09-20T14:05:26.319Z,102139.91
2022-09-20T14:07:54.175Z,102145.25
2022-09-20T14:10:37.446Z,102136.06
2022-09-20T14:13:08.708Z,102132.22
2022-09-20T14:15:45.486Z,102132.00
2022-09-20T14:18:17.012Z,102133.03
2022-09-20T14:20:45.452Z,102131.19
2022-09-20T14:23:24.259Z,102130.19
2022-09-20T14:26:24.527Z,102131.69
2022-09-20T14:28:52.317Z,102125.97
2022-09-20T14:31:34.965Z,102133.63
2022-09-20T14:34:04.763Z,102124.59
2022-09-20T14:36:31.780Z,102118.44
2022-09-20T14:39:03.122Z,102122.13
2022-09-20T14:41:34.696Z,102115.97
2022-09-20T14:44:05.749Z,102115.31
2022-09-20T14:46:36.320Z,102120.47
2022-09-20T14:49:31.623Z,102115.59
2022-09-20T14:52:38.412Z,102109.09
2022-09-20T14:55:20.855Z,102113.75
2022-09-20T14:57:48.332Z,102110.94
2022-09-20T15:00:17.383Z,102110.72
2022-09-20T15:02:46.017Z,102115.53
2022-09-20T15:05:26.308Z,102107.72
2022-09-20T15:07:55.306Z,102111.22
2022-09-20T15:10:22.755Z,102102.38
2022-09-20T15:12:49.854Z,102106.72
2022-09-20T15:15:19.363Z,102114.06
2022-09-20T15:17:48.256Z,102108.06
2022-09-20T15:20:23.805Z,102103.56
2022-09-20T15:22:51.422Z,102107.06
2022-09-20T15:25:24.787Z,102102.53
2022-09-20T15:27:52.034Z,102102.38
2022-09-20T15:30:20.812Z,102093.53
2022-09-20T15:32:47.707Z,102092.53
2022-09-20T15:35:15.141Z,102091.03
2022-09-20T15:37:41.978Z,102092.25
2022-09-20T15:40:09.535Z,102094.06
2022-09-20T15:42:38.176Z,102089.38
2022-09-20T15:45:09.997Z,102095.91
2022-09-20T15:47:40.333Z,102086.25
2022-09-20T15:50:08.854Z,102094.78
2022-09-20T15:52:43.039Z,102101.13
2022-09-20T15:55:10.164Z,102095.31
2022-09-20T15:57:37.034Z,102086.78
2022-09-20T16:00:04.405Z,102093.56
2022-09-20T16:02:31.498Z,102095.78
2022-09-20T16:04:59.787Z,102089.97
2022-09-20T16:07:26.610Z,102095.31
2022-09-20T16:09:55.706Z,102095.50
2022-09-20T16:12:24.867Z,102099.16
2022-09-20T16:14:52.077Z,102091.16
2022-09-20T16:17:19.868Z,102091.97
2022-09-20T16:19:49.013Z,102099.00
2022-09-20T16:22:16.301Z,102097.31
2022-09-20T16:24:43.367Z,102090.31
2022-09-20T16:27:10.494Z,102092.34
2022-09-20T16:29:37.775Z,102096.84
2022-09-20T16:32:05.631Z,102100.53
2022-09-20T16:34:46.261Z,102100.53
2022-09-20T16:37:18.880Z,102100.53
2022-09-20T16:39:45.846Z,102098.81
2022-09-20T16:42:13.596Z,102103.78
2022-09-20T16:44:43.348Z,102098.81
2022-09-20T16:47:22.442Z,102099.16
2022-09-20T16:49:50.417Z,102102.03
2022-09-20T16:52:17.872Z,102109.84
2022-09-20T16:54:44.989Z,102101.19
2022-09-20T16:57:13.585Z,102107.38
2022-09-20T16:59:41.016Z,102104.03
2022-09-20T17:02:12.231Z,102106.88
2022-09-20T17:04:39.381Z,102110.38
2022-09-20T17:07:06.548Z,102111.38
2022-09-20T17:09:33.363Z,102103.03
2022-09-20T17:12:01.454Z,102111.66
2022-09-20T17:14:28.358Z,102111.03
2022-09-20T17:16:56.712Z,102108.38
2022-09-20T17:19:23.716Z,102105.69
2022-09-20T17:21:51.502Z,102106.34
2022-09-20T17:24:20.611Z,102108.66
2022-09-20T17:26:49.163Z,102104.16
2022-09-20T17:29:17.975Z,102102.50
2022-09-20T17:31:53.189Z,102107.16
2022-09-20T17:34:22.181Z,102110.19
2022-09-20T17:36:50.616Z,102109.38
2022-09-20T17:39:20.639Z,102110.19
2022-09-20T17:41:49.209Z,102115.53
2022-09-20T17:44:16.785Z,102115.69
2022-09-20T17:46:45.420Z,102120.22
2022-09-20T17:49:14.475Z,102119.38
2022-09-20T17:51:50.434Z,102122.88
2022-09-20T17:54:17.645Z,102127.56
2022-09-20T17:56:49.464Z,102129.59
2022-09-20T17:59:17.596Z,102120.56
2022-09-20T18:01:46.829Z,102123.41
2022-09-20T18:04:14.677Z,102122.78
2022-09-20T18:06:52.941Z,102129.09
2022-09-20T18:09:25.501Z,102127.59
2022-09-20T18:11:54.445Z,102125.31
2022-09-20T18:14:39.321Z,102124.84
2022-09-20T18:17:07.326Z,102119.00
2022-09-20T18:19:34.381Z,102126.84
2022-09-20T18:22:02.486Z,102127.66
2022-09-20T18:24:43.890Z,102128.66
2022-09-20T18:27:13.980Z,102123.50
2022-09-20T18:29:40.748Z,102130.19
2022-09-20T18:32:09.128Z,102129.56
2022-09-20T18:34:41.135Z,102127.22
2022-09-20T18:37:13.843Z,102128.88
2022-09-20T18:39:41.778Z,102133.38
2022-09-20T18:42:09.300Z,102126.59
2022-09-20T18:44:45.780Z,102131.09
2022-09-20T18:47:15.211Z,102131.09
2022-09-20T18:49:42.192Z,102130.41
2022-09-20T18:52:11.088Z,102139.41
2022-09-20T18:54:46.281Z,102140.59
2022-09-20T18:57:13.783Z,102139.94
2022-09-20T18:59:53.826Z,102146.28
2022-09-20T19:02:32.909Z,102144.63
2022-09-20T19:05:29.697Z,102161.78
2022-09-20T19:08:38.490Z,102150.66
2022-09-20T19:11:12.880Z,102150.97
2022-09-20T19:13:42.798Z,102148.50
2022-09-20T19:16:43.455Z,102162.16
2022-09-20T19:19:22.473Z,102161.81
2022-09-20T19:22:09.947Z,102166.66
2022-09-20T19:25:30.015Z,102159.03
2022-09-20T19:28:02.340Z,102165.50
2022-09-20T19:30:42.334Z,102166.88
2022-09-20T19:33:17.505Z,102171.34
2022-09-20T19:35:52.073Z,102175.84
2022-09-20T19:38:29.855Z,102172.19
2022-09-20T19:41:09.189Z,102175.53
2022-09-20T19:43:54.860Z,102180.88
2022-09-20T19:46:46.038Z,102179.00
2022-09-20T19:49:50.244Z,102180.66
2022-09-20T19:52:17.915Z,102183.03
2022-09-20T19:54:46.938Z,102179.69
2022-09-20T19:57:23.429Z,102182.34
2022-09-20T19:59:51.197Z,102182.34
2022-09-20T20:02:30.652Z,102191.19
2022-09-20T20:05:01.116Z,102183.34
2022-09-20T20:10:22.405Z,102189.66
2022-09-20T20:13:06.894Z,102186.00
2022-09-20T20:15:41.527Z,102183.34
2022-09-20T20:18:18.540Z,102188.88
2022-09-20T20:20:51.081Z,102195.19
2022-09-20T20:23:28.172Z,102190.84
2022-09-20T20:26:11.090Z,102199.19
2022-09-20T20:28:38.294Z,102187.88
2022-09-20T20:31:06.733Z,102191.88
2022-09-20T20:33:33.855Z,102193.88
2022-09-20T20:36:02.484Z,102202.69
2022-09-20T20:38:30.992Z,102200.03
2022-09-20T20:41:04.875Z,102204.38
2022-09-20T20:43:32.857Z,102193.72
2022-09-20T20:45:59.952Z,102200.88
2022-09-20T20:48:26.852Z,102197.53
2022-09-20T20:51:04.532Z,102202.03
2022-09-20T20:53:34.330Z,102197.72
2022-09-20T20:56:03.315Z,102205.88
2022-09-20T20:58:32.889Z,102203.22
2022-09-20T21:01:12.941Z,102198.88
2022-09-20T21:03:42.045Z,102202.53
2022-09-20T21:06:10.616Z,102205.19
2022-09-20T21:08:40.695Z,102195.22
2022-09-20T21:11:10.722Z,102200.69
2022-09-20T21:13:39.795Z,102197.19
2022-09-20T21:16:09.468Z,102203.22
2022-09-20T21:18:36.818Z,102197.53
2022-09-20T21:21:05.534Z,102202.53
2022-09-20T21:26:07.975Z,102198.03
2022-09-20T21:28:37.644Z,102203.38
2022-09-20T21:31:06.427Z,102202.53
2022-09-20T21:33:35.524Z,102206.03
2022-09-20T21:36:02.805Z,102206.19
2022-09-20T21:38:33.472Z,102201.69
2022-09-20T21:41:12.550Z,102209.69
2022-09-20T21:43:42.109Z,102198.38
2022-09-20T21:46:13.920Z,102201.03
2022-09-20T21:48:41.715Z,102207.34
2022-09-20T21:51:11.125Z,102202.84
2022-09-20T21:53:39.764Z,102198.72
2022-09-20T21:56:09.852Z,102198.72
2022-09-20T22:01:11.841Z,102204.19
2022-09-20T22:03:42.423Z,102209.53
2022-09-20T22:06:14.011Z,102207.03
2022-09-20T22:11:15.040Z,102204.56
2022-09-20T22:13:44.670Z,102207.22
2022-09-20T22:18:57.126Z,102204.72
2022-09-20T22:21:27.729Z,102207.38
2022-09-20T22:24:05.186Z,102211.88
2022-09-20T22:26:35.385Z,102210.38
2022-09-20T22:29:02.929Z,102207.88
2022-09-20T22:31:32.554Z,102210.69
2022-09-20T22:36:34.381Z,102209.03
2022-09-20T22:39:02.199Z,102209.03
2022-09-20T22:43:55.351Z,102207.56
2022-09-20T22:46:24.295Z,102210.22
2022-09-20T22:48:51.622Z,102205.03
2022-09-20T22:51:22.412Z,102206.88
2022-09-20T22:53:49.999Z,102209.53
2022-09-20T22:56:21.369Z,102214.03
2022-09-20T22:58:51.935Z,102208.88
2022-09-20T23:01:30.638Z,102214.03
2022-09-20T23:04:01.591Z,102219.19
2022-09-20T23:09:18.147Z,102207.56
2022-09-20T23:11:45.610Z,102205.88
2022-09-20T23:14:15.105Z,102210.38
2022-09-20T23:16:44.188Z,102206.88
2022-09-20T23:21:42.544Z,102211.88
2022-09-20T23:24:12.413Z,102214.38
2022-09-20T23:29:10.163Z,102213.53
2022-09-20T23:31:39.955Z,102209.88
2022-09-20T23:39:09.329Z,102211.38
2022-09-20T23:41:37.312Z,102214.03
2022-09-20T23:46:35.196Z,102203.06
2022-09-20T23:49:03.617Z,102215.06
2022-09-20T23:53:58.929Z,102203.03
2022-09-20T23:56:29.634Z,102210.19
2022-09-20T23:58:56.889Z,102204.38
